Time;durP1;ratioP1;P1;durP2;ratioP2;P2;SDS_P1;SDS_P2;PMS_P1;PMS_P2;Temp;Humidity;BMP_temperature;BMP_pressure;BME280_temperature;BME280_humidity;BME280_pressure;Samples;Min_cycle;Max_cycle;Signal;HPM_P1;HPM_P2
2023/09/16 00:04:13;;;;;;;12.82;7.60;;;;;;;;;;10548141;28;20501;-78
2023/09/16 00:09:28;;;;;;;12.88;7.43;;;;;;;;;;10547980;28;20468;-79
2023/09/16 00:14:46;;;;;;;13.18;7.88;;;;;;;;;;10564296;28;20586;-78
2023/09/16 00:19:53;;;;;;;13.15;7.80;;;;;;;;;;10546472;28;20450;-79
2023/09/16 00:25:00;;;;;;;13.30;7.95;;;;;;;;;;10548752;28;20836;-79
2023/09/16 00:30:10;;;;;;;14.35;8.50;;;;;;;;;;10572654;27;20507;-78
2023/09/16 00:35:14;;;;;;;14.80;8.63;;;;;;;;;;10573255;27;20503;-78
2023/09/16 00:40:23;;;;;;;14.30;8.30;;;;;;;;;;10571054;28;20532;-77
2023/09/16 00:45:28;;;;;;;13.30;7.88;;;;;;;;;;10547438;27;20880;-79
2023/09/16 00:50:32;;;;;;;14.53;8.20;;;;;;;;;;10570858;28;21260;-79
2023/09/16 00:55:44;;;;;;;16.73;8.80;;;;;;;;;;10553935;27;20513;-79
2023/09/16 01:00:52;;;;;;;12.60;8.35;;;;;;;;;;10572075;28;20484;-79
2023/09/16 01:05:58;;;;;;;14.73;8.48;;;;;;;;;;10572052;28;20460;-80
2023/09/16 01:11:05;;;;;;;13.90;8.33;;;;;;;;;;10552738;28;20460;-79
2023/09/16 01:16:16;;;;;;;12.70;8.10;;;;;;;;;;10569904;27;20423;-79
2023/09/16 01:21:22;;;;;;;14.90;8.57;;;;;;;;;;10554450;28;20483;-80
2023/09/16 01:26:30;;;;;;;14.35;8.45;;;;;;;;;;10570883;28;20825;-79
2023/09/16 01:31:37;;;;;;;14.87;8.90;;;;;;;;;;10569176;28;20788;-79
2023/09/16 01:36:47;;;;;;;13.77;7.63;;;;;;;;;;10569135;28;20940;-80
2023/09/16 01:42:10;;;;;;;14.18;8.27;;;;;;;;;;10569040;27;20525;-77
2023/09/16 01:47:15;;;;;;;14.23;8.48;;;;;;;;;;10564824;27;20545;-77
2023/09/16 01:52:23;;;;;;;13.80;8.25;;;;;;;;;;10568100;28;20495;-78
2023/09/16 01:57:27;;;;;;;14.23;8.13;;;;;;;;;;10553227;28;20504;-79
2023/09/16 02:02:46;;;;;;;15.93;8.68;;;;;;;;;;10551445;28;20479;-78
2023/09/16 02:07:50;;;;;;;14.23;8.60;;;;;;;;;;10569321;28;20826;-79
2023/09/16 02:12:53;;;;;;;16.53;8.87;;;;;;;;;;10567675;28;20899;-78
2023/09/16 02:17:57;;;;;;;15.07;8.50;;;;;;;;;;10554119;27;20481;-79
2023/09/16 02:23:07;;;;;;;14.85;8.85;;;;;;;;;;10543830;28;20423;-78
2023/09/16 02:28:10;;;;;;;15.82;9.13;;;;;;;;;;10567995;28;20806;-78
2023/09/16 02:33:15;;;;;;;17.02;8.80;;;;;;;;;;10569704;27;21475;-78
2023/09/16 02:38:21;;;;;;;17.67;9.13;;;;;;;;;;10564769;27;20443;-79
2023/09/16 02:43:27;;;;;;;18.02;9.23;;;;;;;;;;10547957;27;20484;-78
2023/09/16 02:48:32;;;;;;;18.07;9.93;;;;;;;;;;10542298;28;20414;-79
2023/09/16 02:53:36;;;;;;;15.98;9.68;;;;;;;;;;10554326;28;20492;-78
2023/09/16 02:58:43;;;;;;;16.73;8.95;;;;;;;;;;10545571;28;20420;-79
2023/09/16 03:03:47;;;;;;;18.00;9.57;;;;;;;;;;10562355;28;20504;-79
2023/09/16 03:08:50;;;;;;;17.83;10.40;;;;;;;;;;10573532;27;20443;-78
2023/09/16 03:13:56;;;;;;;17.10;9.63;;;;;;;;;;10555308;28;20420;-78
2023/09/16 03:19:02;;;;;;;18.48;10.48;;;;;;;;;;10563133;28;20475;-78
2023/09/16 03:24:11;;;;;;;18.85;10.15;;;;;;;;;;10543058;28;20609;-78
2023/09/16 03:29:21;;;;;;;20.33;10.50;;;;;;;;;;10541333;28;20586;-79
2023/09/16 03:34:26;;;;;;;18.67;10.73;;;;;;;;;;10561699;28;20475;-78
2023/09/16 03:39:31;;;;;;;18.02;10.10;;;;;;;;;;10545652;28;20509;-78
2023/09/16 03:44:37;;;;;;;19.67;10.55;;;;;;;;;;10541775;28;20917;-78
2023/09/16 03:49:55;;;;;;;17.20;10.13;;;;;;;;;;10543099;27;20502;-79
2023/09/16 03:55:24;;;;;;;19.00;10.15;;;;;;;;;;10552323;28;20495;-79
2023/09/16 04:00:30;;;;;;;18.77;10.33;;;;;;;;;;10554387;28;20888;-79
2023/09/16 04:05:36;;;;;;;18.20;10.40;;;;;;;;;;10564829;28;20431;-79
2023/09/16 04:10:46;;;;;;;19.40;10.63;;;;;;;;;;10567875;28;20423;-79
2023/09/16 04:15:54;;;;;;;19.13;11.02;;;;;;;;;;10565191;28;20424;-79
2023/09/16 04:21:11;;;;;;;19.17;11.02;;;;;;;;;;10535141;28;20412;-79
2023/09/16 04:26:20;;;;;;;20.95;10.82;;;;;;;;;;10576914;28;20485;-78
2023/09/16 04:31:25;;;;;;;18.33;10.93;;;;;;;;;;10561001;28;20913;-78
2023/09/16 04:36:30;;;;;;;18.65;10.95;;;;;;;;;;10580116;28;20496;-78
2023/09/16 04:41:53;;;;;;;19.67;10.87;;;;;;;;;;10565646;28;20521;-77
2023/09/16 04:46:59;;;;;;;19.73;11.00;;;;;;;;;;10573383;28;20456;-77
2023/09/16 04:52:08;;;;;;;20.02;10.77;;;;;;;;;;10557658;28;20427;-76
2023/09/16 04:57:25;;;;;;;17.93;10.40;;;;;;;;;;10552823;28;20424;-78
2023/09/16 05:02:34;;;;;;;17.85;10.18;;;;;;;;;;10574068;28;20427;-79
2023/09/16 05:07:45;;;;;;;19.98;10.95;;;;;;;;;;10563681;28;20527;-78
2023/09/16 05:13:07;;;;;;;19.20;10.88;;;;;;;;;;10522317;28;20419;-77
2023/09/16 05:18:16;;;;;;;19.23;11.05;;;;;;;;;;10574760;28;20424;-77
2023/09/16 05:23:33;;;;;;;19.15;10.75;;;;;;;;;;10573357;28;20571;-77
2023/09/16 05:28:56;;;;;;;18.67;10.80;;;;;;;;;;10546080;28;20442;-78
2023/09/16 05:34:01;;;;;;;19.08;10.73;;;;;;;;;;10567129;28;20465;-79
2023/09/16 05:39:05;;;;;;;21.87;11.40;;;;;;;;;;10554932;27;20406;-78
2023/09/16 05:44:15;;;;;;;19.17;10.80;;;;;;;;;;10551175;28;20846;-78
2023/09/16 05:49:23;;;;;;;26.00;11.90;;;;;;;;;;10569308;28;20511;-78
2023/09/16 05:54:41;;;;;;;21.17;10.93;;;;;;;;;;10568776;27;20460;-77
2023/09/16 05:59:48;;;;;;;22.40;11.73;;;;;;;;;;10551306;28;20477;-80
2023/09/16 06:04:55;;;;;;;19.73;11.33;;;;;;;;;;10570528;27;20468;-79
2023/09/16 06:10:04;;;;;;;20.38;12.07;;;;;;;;;;10553378;27;20874;-79
2023/09/16 06:15:10;;;;;;;19.33;11.27;;;;;;;;;;10566666;28;20811;-80
2023/09/16 06:20:15;;;;;;;17.23;10.35;;;;;;;;;;10565554;28;20479;-77
2023/09/16 06:25:20;;;;;;;15.68;9.27;;;;;;;;;;10556414;28;20969;-77
2023/09/16 06:30:26;;;;;;;14.90;8.60;;;;;;;;;;10553246;27;20471;-79
2023/09/16 06:35:30;;;;;;;14.00;8.70;;;;;;;;;;10570095;27;20429;-81
2023/09/16 06:40:35;;;;;;;12.87;8.20;;;;;;;;;;10546985;27;20499;-82
2023/09/16 06:45:42;;;;;;;12.55;7.68;;;;;;;;;;10558869;27;20488;-81
2023/09/16 06:50:50;;;;;;;12.25;7.43;;;;;;;;;;10530769;27;22034;-81
2023/09/16 06:55:56;;;;;;;11.15;7.40;;;;;;;;;;10548761;27;20888;-81
2023/09/16 07:01:18;;;;;;;11.75;7.70;;;;;;;;;;10512390;27;20412;-80
2023/09/16 07:06:21;;;;;;;10.77;7.43;;;;;;;;;;10557228;27;20786;-80
2023/09/16 07:11:34;;;;;;;11.68;7.55;;;;;;;;;;10563352;27;20442;-81
2023/09/16 07:16:42;;;;;;;9.38;7.20;;;;;;;;;;10564292;27;20428;-79
2023/09/16 07:21:50;;;;;;;10.38;7.90;;;;;;;;;;10565456;27;20423;-79
2023/09/16 07:26:59;;;;;;;10.65;7.70;;;;;;;;;;10547011;27;20425;-78
2023/09/16 07:32:15;;;;;;;11.77;7.63;;;;;;;;;;10526065;27;20832;-80
2023/09/16 07:37:22;;;;;;;10.73;7.60;;;;;;;;;;10561558;27;20511;-78
2023/09/16 07:42:32;;;;;;;11.43;8.70;;;;;;;;;;10508865;27;20983;-79
2023/09/16 07:47:52;;;;;;;11.35;8.20;;;;;;;;;;10560745;27;21040;-78
2023/09/16 07:53:06;;;;;;;9.90;7.77;;;;;;;;;;10561641;28;21162;-79
2023/09/16 07:58:22;;;;;;;10.23;8.15;;;;;;;;;;10561157;28;20892;-81
2023/09/16 08:04:02;;;;;;;9.25;7.70;;;;;;;;;;10559287;28;20424;-80
2023/09/16 08:09:11;;;;;;;10.02;8.13;;;;;;;;;;10525450;28;20422;-80
2023/09/16 08:14:17;;;;;;;10.43;7.93;;;;;;;;;;10526938;28;20927;-77
2023/09/16 08:19:32;;;;;;;9.32;7.50;;;;;;;;;;10555126;28;21690;-79
2023/09/16 08:30:00;;;;;;;8.57;7.68;;;;;;;;;;10557881;28;21141;-79
2023/09/16 08:35:13;;;;;;;10.18;7.50;;;;;;;;;;10563010;28;20441;-79
2023/09/16 08:40:23;;;;;;;7.97;7.13;;;;;;;;;;10551287;28;20473;-80
2023/09/16 08:45:30;;;;;;;12.07;7.95;;;;;;;;;;10564057;28;20931;-80
2023/09/16 08:51:01;;;;;;;10.10;7.63;;;;;;;;;;10546026;27;20942;-80
2023/09/16 08:56:07;;;;;;;9.07;7.70;;;;;;;;;;10556180;27;20421;-80
2023/09/16 09:01:19;;;;;;;8.85;7.30;;;;;;;;;;10552521;27;20803;-80
2023/09/16 09:06:35;;;;;;;9.65;7.88;;;;;;;;;;10568196;27;20431;-79
2023/09/16 09:11:45;;;;;;;9.85;7.70;;;;;;;;;;10551958;28;20441;-80
2023/09/16 09:16:51;;;;;;;10.30;7.65;;;;;;;;;;10567524;28;20497;-80
2023/09/16 09:21:57;;;;;;;8.55;7.20;;;;;;;;;;10552687;28;20420;-80
2023/09/16 09:27:16;;;;;;;9.43;7.30;;;;;;;;;;10569357;27;20416;-80
2023/09/16 09:32:31;;;;;;;8.33;6.73;;;;;;;;;;10570431;27;20420;-80
2023/09/16 09:38:06;;;;;;;9.67;7.70;;;;;;;;;;10556268;27;20420;-80
2023/09/16 09:43:36;;;;;;;9.63;7.50;;;;;;;;;;10569400;27;20420;-79
2023/09/16 09:48:41;;;;;;;8.00;7.03;;;;;;;;;;10574355;27;20432;-80
2023/09/16 09:53:53;;;;;;;10.07;7.15;;;;;;;;;;10540167;27;20812;-80
2023/09/16 09:59:13;;;;;;;8.97;7.40;;;;;;;;;;10551228;28;20892;-81
2023/09/16 10:04:21;;;;;;;8.03;6.70;;;;;;;;;;10552800;27;20420;-80
2023/09/16 10:09:35;;;;;;;8.05;6.40;;;;;;;;;;10573178;27;20584;-80
2023/09/16 10:14:51;;;;;;;6.43;5.75;;;;;;;;;;10571165;27;20416;-80
2023/09/16 10:19:57;;;;;;;8.05;6.30;;;;;;;;;;10579729;27;20847;-80
2023/09/16 10:25:30;;;;;;;7.13;6.43;;;;;;;;;;10569095;28;20485;-81
2023/09/16 10:30:43;;;;;;;7.22;6.28;;;;;;;;;;10552599;28;20431;-81
2023/09/16 10:35:50;;;;;;;8.57;6.85;;;;;;;;;;10573910;27;20422;-81
2023/09/16 10:41:04;;;;;;;7.90;6.28;;;;;;;;;;10569461;27;20458;-80
2023/09/16 10:46:13;;;;;;;7.17;6.27;;;;;;;;;;10536085;27;20428;-81
2023/09/16 10:51:24;;;;;;;6.80;6.10;;;;;;;;;;10556802;27;20939;-80
2023/09/16 10:56:43;;;;;;;6.73;5.90;;;;;;;;;;10574085;27;20422;-80
2023/09/16 11:01:55;;;;;;;6.82;6.10;;;;;;;;;;10572118;27;20504;-79
2023/09/16 11:07:03;;;;;;;9.03;5.83;;;;;;;;;;10571751;27;20534;-80
2023/09/16 11:12:20;;;;;;;7.37;5.70;;;;;;;;;;10567336;27;20766;-80
2023/09/16 11:17:30;;;;;;;6.13;5.50;;;;;;;;;;10562705;27;20412;-80
2023/09/16 11:22:37;;;;;;;7.10;5.53;;;;;;;;;;10567448;27;20511;-80
2023/09/16 11:27:46;;;;;;;6.35;5.53;;;;;;;;;;10543214;28;20930;-79
2023/09/16 11:33:08;;;;;;;9.50;5.23;;;;;;;;;;10540973;27;20775;-81
2023/09/16 11:38:21;;;;;;;6.22;5.03;;;;;;;;;;10561908;28;20777;-81
2023/09/16 11:43:33;;;;;;;7.55;5.38;;;;;;;;;;10547455;28;21019;-80
2023/09/16 11:49:10;;;;;;;5.18;4.68;;;;;;;;;;10551138;28;20421;-80
2023/09/16 11:54:17;;;;;;;5.57;5.00;;;;;;;;;;10566628;28;20477;-81
2023/09/16 11:59:32;;;;;;;5.68;4.82;;;;;;;;;;10565213;28;20483;-80
2023/09/16 12:04:52;;;;;;;5.73;4.50;;;;;;;;;;10545657;28;20420;-80
2023/09/16 12:09:57;;;;;;;5.00;4.30;;;;;;;;;;10548388;28;20435;-80
2023/09/16 12:15:31;;;;;;;5.95;4.65;;;;;;;;;;10541066;28;20432;-80
2023/09/16 12:20:53;;;;;;;6.57;4.63;;;;;;;;;;10558653;28;20440;-80
2023/09/16 12:26:31;;;;;;;6.18;4.47;;;;;;;;;;10570357;28;20420;-80
2023/09/16 12:31:55;;;;;;;5.63;4.90;;;;;;;;;;10554201;28;20412;-80
2023/09/16 12:37:11;;;;;;;5.13;4.43;;;;;;;;;;10533314;27;20411;-80
2023/09/16 12:42:32;;;;;;;6.00;4.72;;;;;;;;;;10545957;27;20943;-80
2023/09/16 12:47:45;;;;;;;4.55;4.10;;;;;;;;;;10572259;27;20884;-80
2023/09/16 12:52:58;;;;;;;8.73;4.40;;;;;;;;;;10571582;27;21105;-80
2023/09/16 12:58:14;;;;;;;4.25;3.80;;;;;;;;;;10573175;28;20875;-80
2023/09/16 13:03:28;;;;;;;4.68;4.10;;;;;;;;;;10576628;28;20516;-80
2023/09/16 13:08:41;;;;;;;4.75;3.95;;;;;;;;;;10565632;27;20499;-80
2023/09/16 13:13:52;;;;;;;4.07;3.63;;;;;;;;;;10574396;27;20829;-80
2023/09/16 13:19:27;;;;;;;5.03;3.40;;;;;;;;;;10571197;28;20473;-80
2023/09/16 13:24:44;;;;;;;6.00;3.90;;;;;;;;;;10550719;28;20424;-79
2023/09/16 13:30:02;;;;;;;3.87;3.37;;;;;;;;;;10543096;27;20485;-79
2023/09/16 13:35:20;;;;;;;6.45;4.13;;;;;;;;;;10553679;28;20422;-79
2023/09/16 13:40:28;;;;;;;6.97;3.70;;;;;;;;;;10575298;27;20458;-79
2023/09/16 13:45:39;;;;;;;4.47;3.85;;;;;;;;;;10561835;27;20930;-80
2023/09/16 13:50:43;;;;;;;4.18;3.72;;;;;;;;;;10589863;27;20420;-80
2023/09/16 13:56:00;;;;;;;5.35;3.60;;;;;;;;;;10573197;27;20434;-81
2023/09/16 14:01:17;;;;;;;5.30;3.60;;;;;;;;;;10568911;27;20420;-79
2023/09/16 14:06:24;;;;;;;5.43;3.30;;;;;;;;;;10588075;27;20776;-80
2023/09/16 14:11:36;;;;;;;6.45;3.53;;;;;;;;;;10577127;27;20514;-80
2023/09/16 14:22:20;;;;;;;6.07;3.40;;;;;;;;;;10593300;27;20411;-80
2023/09/16 14:27:45;;;;;;;4.13;3.33;;;;;;;;;;10564005;27;20778;-79
2023/09/16 14:32:53;;;;;;;4.50;3.13;;;;;;;;;;10556254;27;20471;-79
2023/09/16 14:38:03;;;;;;;5.10;2.97;;;;;;;;;;10557883;27;20474;-80
2023/09/16 14:43:11;;;;;;;5.15;3.30;;;;;;;;;;10569616;27;20922;-79
2023/09/16 14:48:18;;;;;;;4.63;3.40;;;;;;;;;;10572656;27;20908;-79
2023/09/16 14:53:27;;;;;;;4.07;3.20;;;;;;;;;;10569474;27;20595;-76
2023/09/16 14:58:39;;;;;;;4.72;3.40;;;;;;;;;;10552467;27;20412;-76
2023/09/16 15:03:43;;;;;;;4.53;3.53;;;;;;;;;;10570093;27;20486;-79
2023/09/16 15:08:53;;;;;;;5.03;3.45;;;;;;;;;;10546801;27;20426;-78
2023/09/16 15:14:03;;;;;;;5.78;4.00;;;;;;;;;;10552426;27;20416;-80
2023/09/16 15:19:12;;;;;;;7.47;4.57;;;;;;;;;;10550314;28;20434;-78
2023/09/16 15:24:17;;;;;;;5.73;4.10;;;;;;;;;;10552286;27;20944;-79
2023/09/16 15:29:27;;;;;;;7.18;4.63;;;;;;;;;;10560053;28;20966;-78
2023/09/16 15:34:34;;;;;;;7.70;4.45;;;;;;;;;;10572761;27;20436;-78
2023/09/16 15:39:39;;;;;;;7.03;4.40;;;;;;;;;;10547787;28;20424;-78
2023/09/16 15:44:46;;;;;;;9.63;4.60;;;;;;;;;;10547211;27;20468;-78
2023/09/16 15:49:50;;;;;;;7.60;4.68;;;;;;;;;;10568596;27;20420;-78
2023/09/16 15:54:54;;;;;;;8.38;4.68;;;;;;;;;;10550446;28;20459;-77
2023/09/16 16:00:02;;;;;;;32.85;9.90;;;;;;;;;;10561808;28;20446;-78
2023/09/16 16:05:11;;;;;;;19.37;7.80;;;;;;;;;;10552308;28;20556;-81
2023/09/16 16:10:25;;;;;;;7.95;5.00;;;;;;;;;;10551232;28;20424;-80
2023/09/16 16:15:40;;;;;;;9.60;5.72;;;;;;;;;;10568178;28;20424;-80
2023/09/16 16:20:56;;;;;;;7.75;5.22;;;;;;;;;;10570372;28;20936;-80
2023/09/16 16:26:03;;;;;;;8.23;5.53;;;;;;;;;;10565233;28;20792;-79
2023/09/16 16:36:32;;;;;;;8.93;5.47;;;;;;;;;;10565928;28;20477;-80
2023/09/16 16:42:04;;;;;;;8.57;5.32;;;;;;;;;;10570648;28;20436;-79
2023/09/16 16:47:28;;;;;;;7.18;5.20;;;;;;;;;;10571449;28;20435;-80
2023/09/16 16:52:34;;;;;;;10.48;5.50;;;;;;;;;;10562314;28;20804;-80
2023/09/16 16:57:43;;;;;;;9.05;5.20;;;;;;;;;;10568345;28;20424;-79
2023/09/16 17:02:47;;;;;;;9.13;5.47;;;;;;;;;;10560597;28;21062;-80
2023/09/16 17:07:56;;;;;;;9.18;5.60;;;;;;;;;;10543866;28;20423;-80
2023/09/16 17:13:02;;;;;;;8.60;5.77;;;;;;;;;;10570027;27;20455;-79
2023/09/16 17:18:06;;;;;;;7.97;5.40;;;;;;;;;;10549761;27;20910;-81
2023/09/16 17:23:16;;;;;;;10.60;5.38;;;;;;;;;;10552126;27;20531;-80
2023/09/16 17:28:25;;;;;;;9.67;6.00;;;;;;;;;;10548534;27;20424;-82
2023/09/16 17:33:33;;;;;;;8.30;5.50;;;;;;;;;;10566994;28;20431;-85
2023/09/16 17:38:42;;;;;;;9.77;5.43;;;;;;;;;;10557306;27;20424;-84
2023/09/16 17:43:51;;;;;;;9.68;5.70;;;;;;;;;;10572994;27;20420;-84
2023/09/16 17:48:56;;;;;;;9.27;5.80;;;;;;;;;;10536502;27;20487;-84
2023/09/16 17:54:10;;;;;;;10.88;6.30;;;;;;;;;;10560574;27;20412;-83
2023/09/16 17:59:19;;;;;;;9.00;5.93;;;;;;;;;;10549236;28;21083;-83
2023/09/16 18:04:39;;;;;;;9.98;5.78;;;;;;;;;;10563092;27;20557;-83
2023/09/16 18:09:50;;;;;;;9.17;5.70;;;;;;;;;;10566647;27;20514;-84
2023/09/16 18:14:58;;;;;;;8.10;5.47;;;;;;;;;;10549125;27;20948;-79
2023/09/16 18:20:04;;;;;;;7.70;5.32;;;;;;;;;;10552061;27;20496;-80
2023/09/16 18:25:25;;;;;;;8.13;5.50;;;;;;;;;;10556760;27;20431;-80
2023/09/16 18:30:32;;;;;;;9.13;5.70;;;;;;;;;;10524060;28;20855;-80
2023/09/16 18:35:38;;;;;;;10.88;7.13;;;;;;;;;;10539155;27;20453;-79
2023/09/16 18:40:42;;;;;;;9.67;6.07;;;;;;;;;;10551660;27;20777;-80
2023/09/16 18:45:52;;;;;;;8.52;5.82;;;;;;;;;;10567554;27;20448;-82
2023/09/16 18:50:58;;;;;;;10.23;6.15;;;;;;;;;;10564580;27;20423;-81
2023/09/16 18:56:09;;;;;;;11.00;6.57;;;;;;;;;;10558966;27;20620;-81
2023/09/16 19:01:19;;;;;;;11.60;6.65;;;;;;;;;;10591160;27;20427;-82
2023/09/16 19:06:30;;;;;;;12.07;7.35;;;;;;;;;;10560624;27;20444;-82
2023/09/16 19:11:39;;;;;;;12.00;6.93;;;;;;;;;;10541920;27;20419;-82
2023/09/16 19:16:45;;;;;;;10.73;7.03;;;;;;;;;;10548288;27;20619;-82
2023/09/16 19:21:53;;;;;;;12.50;6.90;;;;;;;;;;10569866;27;20428;-82
2023/09/16 19:26:59;;;;;;;17.00;9.68;;;;;;;;;;10550571;28;20434;-80
2023/09/16 19:37:32;;;;;;;12.50;7.30;;;;;;;;;;10558899;27;20955;-78
2023/09/16 19:42:39;;;;;;;17.63;9.57;;;;;;;;;;10571275;27;20537;-78
2023/09/16 19:47:58;;;;;;;16.45;9.73;;;;;;;;;;10573428;28;20501;-78
2023/09/16 19:53:05;;;;;;;13.15;7.97;;;;;;;;;;10574738;28;20428;-78
2023/09/16 19:58:14;;;;;;;13.55;7.68;;;;;;;;;;10572823;27;20427;-78
2023/09/16 20:03:34;;;;;;;17.88;11.05;;;;;;;;;;10578159;28;20481;-80
2023/09/16 20:08:44;;;;;;;16.43;10.90;;;;;;;;;;10586658;28;20416;-78
2023/09/16 20:13:58;;;;;;;15.52;10.20;;;;;;;;;;10587373;28;20430;-79
2023/09/16 20:19:09;;;;;;;15.43;8.30;;;;;;;;;;10586176;28;20418;-79
2023/09/16 20:24:13;;;;;;;13.30;7.95;;;;;;;;;;10573075;28;20508;-77
2023/09/16 20:29:19;;;;;;;13.70;8.40;;;;;;;;;;10551613;28;20551;-79
2023/09/16 20:34:28;;;;;;;19.00;11.87;;;;;;;;;;10556133;28;20543;-77
2023/09/16 20:39:33;;;;;;;13.93;8.40;;;;;;;;;;10561045;28;20424;-77
2023/09/16 20:44:37;;;;;;;12.18;7.28;;;;;;;;;;10548069;27;20539;-78
2023/09/16 20:49:54;;;;;;;12.97;8.20;;;;;;;;;;10538402;27;20571;-80
2023/09/16 20:55:04;;;;;;;11.97;7.40;;;;;;;;;;10567631;27;20927;-79
2023/09/16 21:00:11;;;;;;;13.73;8.68;;;;;;;;;;10567796;27;20420;-78
2023/09/16 21:05:21;;;;;;;21.05;11.20;;;;;;;;;;10561951;27;20513;-78
2023/09/16 21:16:44;;;;;;;14.33;8.87;;;;;;;;;;10577981;27;20757;-78
2023/09/16 21:21:57;;;;;;;13.73;8.35;;;;;;;;;;10569142;27;20418;-79
2023/09/16 21:27:09;;;;;;;15.50;8.77;;;;;;;;;;10571425;27;20988;-81
2023/09/16 21:32:21;;;;;;;15.10;8.53;;;;;;;;;;10570319;27;20517;-80
2023/09/16 21:37:38;;;;;;;14.87;8.87;;;;;;;;;;10568514;27;20443;-79
2023/09/16 21:42:47;;;;;;;15.20;8.85;;;;;;;;;;10571707;27;20920;-78
2023/09/16 21:48:05;;;;;;;15.60;9.07;;;;;;;;;;10567878;27;20434;-80
2023/09/16 21:53:23;;;;;;;15.35;9.32;;;;;;;;;;10567577;27;20893;-80
2023/09/16 21:58:36;;;;;;;19.92;11.73;;;;;;;;;;10550138;27;20440;-80
2023/09/16 22:03:53;;;;;;;15.90;9.18;;;;;;;;;;10574629;27;20416;-78
2023/09/16 22:09:12;;;;;;;17.30;9.73;;;;;;;;;;10567546;27;20432;-79
2023/09/16 22:14:25;;;;;;;14.52;9.52;;;;;;;;;;10553867;27;20431;-80
2023/09/16 22:19:40;;;;;;;15.63;9.35;;;;;;;;;;10568274;27;20530;-78
2023/09/16 22:24:54;;;;;;;15.60;9.10;;;;;;;;;;10577823;27;20503;-79
2023/09/16 22:30:02;;;;;;;17.17;10.00;;;;;;;;;;10580343;27;20432;-81
2023/09/16 22:35:11;;;;;;;16.30;9.87;;;;;;;;;;10561136;27;20419;-80
2023/09/16 22:40:28;;;;;;;14.88;9.38;;;;;;;;;;10573666;27;20427;-78
2023/09/16 22:45:40;;;;;;;15.30;9.33;;;;;;;;;;10572912;27;20423;-79
2023/09/16 22:50:44;;;;;;;16.03;9.67;;;;;;;;;;10585007;27;20507;-78
2023/09/16 22:56:19;;;;;;;16.50;10.10;;;;;;;;;;10507291;27;20447;-79
2023/09/16 23:01:33;;;;;;;15.80;9.60;;;;;;;;;;10556880;28;20452;-78
2023/09/16 23:06:39;;;;;;;17.00;9.80;;;;;;;;;;10576117;27;20446;-78
2023/09/16 23:12:11;;;;;;;16.00;9.82;;;;;;;;;;10573891;27;20852;-78
2023/09/16 23:17:24;;;;;;;17.10;10.40;;;;;;;;;;10560612;27;20461;-78
2023/09/16 23:22:36;;;;;;;15.93;9.70;;;;;;;;;;10576096;27;20416;-78
2023/09/16 23:27:43;;;;;;;15.98;9.77;;;;;;;;;;10578924;27;20432;-79
2023/09/16 23:33:07;;;;;;;17.13;10.37;;;;;;;;;;10572956;28;20435;-78
2023/09/16 23:38:17;;;;;;;18.95;10.48;;;;;;;;;;10570486;27;20427;-79
2023/09/16 23:43:44;;;;;;;17.93;10.50;;;;;;;;;;10563290;28;20460;-78
2023/09/16 23:48:53;;;;;;;16.30;10.05;;;;;;;;;;10548362;27;20443;-79
2023/09/16 23:54:06;;;;;;;17.02;10.27;;;;;;;;;;10567680;28;20424;-78
2023/09/16 23:59:20;;;;;;;15.98;10.52;;;;;;;;;;10549122;27;20428;-78
